sensor_id;sensor_type;location;lat;lon;timestamp;P1;durP1;ratioP1;P2;durP2;ratioP2
5845;SDS011;2949;50.778;7.094;2022-07-29T00:00:39;1.43;;;1.23;;
5845;SDS011;2949;50.778;7.094;2022-07-29T00:03:04;4.53;;;1.20;;
5845;SDS011;2949;50.778;7.094;2022-07-29T00:05:30;3.27;;;1.07;;
5845;SDS011;2949;50.778;7.094;2022-07-29T00:07:55;2.50;;;1.10;;
5845;SDS011;2949;50.778;7.094;2022-07-29T00:10:21;2.60;;;1.20;;
5845;SDS011;2949;50.778;7.094;2022-07-29T00:12:46;1.43;;;1.07;;
5845;SDS011;2949;50.778;7.094;2022-07-29T00:15:12;2.20;;;1.20;;
5845;SDS011;2949;50.778;7.094;2022-07-29T00:17:38;2.57;;;0.87;;
5845;SDS011;2949;50.778;7.094;2022-07-29T00:20:04;2.10;;;1.03;;
5845;SDS011;2949;50.778;7.094;2022-07-29T00:22:30;3.23;;;1.30;;
5845;SDS011;2949;50.778;7.094;2022-07-29T00:24:55;3.70;;;1.33;;
5845;SDS011;2949;50.778;7.094;2022-07-29T00:27:21;9.97;;;1.70;;
5845;SDS011;2949;50.778;7.094;2022-07-29T00:29:47;2.20;;;1.40;;
5845;SDS011;2949;50.778;7.094;2022-07-29T00:32:12;3.33;;;1.40;;
5845;SDS011;2949;50.778;7.094;2022-07-29T00:34:38;4.53;;;1.20;;
5845;SDS011;2949;50.778;7.094;2022-07-29T00:37:23;1.80;;;1.20;;
5845;SDS011;2949;50.778;7.094;2022-07-29T00:39:48;5.63;;;2.00;;
5845;SDS011;2949;50.778;7.094;2022-07-29T00:42:14;1.73;;;1.20;;
5845;SDS011;2949;50.778;7.094;2022-07-29T00:44:41;1.87;;;1.43;;
5845;SDS011;2949;50.778;7.094;2022-07-29T00:47:07;2.10;;;1.40;;
5845;SDS011;2949;50.778;7.094;2022-07-29T00:49:34;4.13;;;1.80;;
5845;SDS011;2949;50.778;7.094;2022-07-29T00:52:06;2.43;;;1.27;;
5845;SDS011;2949;50.778;7.094;2022-07-29T00:54:33;5.17;;;1.10;;
5845;SDS011;2949;50.778;7.094;2022-07-29T00:56:59;2.47;;;1.60;;
5845;SDS011;2949;50.778;7.094;2022-07-29T00:59:27;2.13;;;1.50;;
5845;SDS011;2949;50.778;7.094;2022-07-29T01:01:53;2.67;;;1.30;;
5845;SDS011;2949;50.778;7.094;2022-07-29T01:04:20;1.20;;;1.10;;
5845;SDS011;2949;50.778;7.094;2022-07-29T01:06:47;4.93;;;1.20;;
5845;SDS011;2949;50.778;7.094;2022-07-29T01:09:13;5.80;;;1.60;;
5845;SDS011;2949;50.778;7.094;2022-07-29T01:11:39;2.57;;;1.47;;
5845;SDS011;2949;50.778;7.094;2022-07-29T01:14:06;3.80;;;1.40;;
5845;SDS011;2949;50.778;7.094;2022-07-29T01:16:35;8.07;;;1.73;;
5845;SDS011;2949;50.778;7.094;2022-07-29T01:22:19;5.30;;;1.50;;
5845;SDS011;2949;50.778;7.094;2022-07-29T01:25:03;3.00;;;1.40;;
5845;SDS011;2949;50.778;7.094;2022-07-29T01:30:22;3.37;;;1.60;;
5845;SDS011;2949;50.778;7.094;2022-07-29T01:32:51;7.23;;;1.67;;
5845;SDS011;2949;50.778;7.094;2022-07-29T01:35:42;6.10;;;1.50;;
5845;SDS011;2949;50.778;7.094;2022-07-29T01:38:12;5.57;;;1.87;;
5845;SDS011;2949;50.778;7.094;2022-07-29T01:43:10;3.90;;;1.67;;
5845;SDS011;2949;50.778;7.094;2022-07-29T01:45:53;2.07;;;1.87;;
5845;SDS011;2949;50.778;7.094;2022-07-29T01:48:34;5.17;;;2.10;;
5845;SDS011;2949;50.778;7.094;2022-07-29T01:51:05;3.87;;;1.80;;
5845;SDS011;2949;50.778;7.094;2022-07-29T01:56:35;3.70;;;1.40;;
5845;SDS011;2949;50.778;7.094;2022-07-29T01:59:03;6.63;;;1.50;;
5845;SDS011;2949;50.778;7.094;2022-07-29T02:01:31;1.23;;;1.10;;
5845;SDS011;2949;50.778;7.094;2022-07-29T02:04:00;8.53;;;1.90;;
5845;SDS011;2949;50.778;7.094;2022-07-29T02:06:28;4.50;;;1.53;;
5845;SDS011;2949;50.778;7.094;2022-07-29T02:08:57;6.13;;;1.60;;
5845;SDS011;2949;50.778;7.094;2022-07-29T02:11:24;3.20;;;1.47;;
5845;SDS011;2949;50.778;7.094;2022-07-29T02:13:50;1.20;;;1.10;;
5845;SDS011;2949;50.778;7.094;2022-07-29T02:16:20;5.90;;;2.07;;
5845;SDS011;2949;50.778;7.094;2022-07-29T02:18:47;3.13;;;1.50;;
5845;SDS011;2949;50.778;7.094;2022-07-29T02:21:19;7.00;;;2.17;;
5845;SDS011;2949;50.778;7.094;2022-07-29T02:23:49;2.60;;;1.47;;
5845;SDS011;2949;50.778;7.094;2022-07-29T02:26:18;1.67;;;0.93;;
5845;SDS011;2949;50.778;7.094;2022-07-29T02:28:46;6.57;;;1.83;;
5845;SDS011;2949;50.778;7.094;2022-07-29T02:31:13;6.53;;;2.00;;
5845;SDS011;2949;50.778;7.094;2022-07-29T02:33:41;2.07;;;1.43;;
5845;SDS011;2949;50.778;7.094;2022-07-29T02:36:08;2.50;;;2.30;;
5845;SDS011;2949;50.778;7.094;2022-07-29T02:38:34;3.97;;;2.13;;
5845;SDS011;2949;50.778;7.094;2022-07-29T02:41:17;2.20;;;1.77;;
5845;SDS011;2949;50.778;7.094;2022-07-29T02:43:56;2.30;;;2.20;;
5845;SDS011;2949;50.778;7.094;2022-07-29T02:46:26;2.50;;;1.70;;
5845;SDS011;2949;50.778;7.094;2022-07-29T02:51:46;3.67;;;2.10;;
5845;SDS011;2949;50.778;7.094;2022-07-29T02:54:22;2.10;;;1.90;;
5845;SDS011;2949;50.778;7.094;2022-07-29T02:56:58;6.33;;;2.47;;
5845;SDS011;2949;50.778;7.094;2022-07-29T02:59:27;2.93;;;1.77;;
5845;SDS011;2949;50.778;7.094;2022-07-29T03:01:55;3.73;;;1.60;;
5845;SDS011;2949;50.778;7.094;2022-07-29T03:04:24;4.93;;;1.80;;
5845;SDS011;2949;50.778;7.094;2022-07-29T03:06:50;3.60;;;2.20;;
5845;SDS011;2949;50.778;7.094;2022-07-29T03:09:18;2.20;;;2.00;;
5845;SDS011;2949;50.778;7.094;2022-07-29T03:11:44;2.93;;;1.73;;
5845;SDS011;2949;50.778;7.094;2022-07-29T03:14:10;4.33;;;1.80;;
5845;SDS011;2949;50.778;7.094;2022-07-29T03:16:36;3.87;;;1.90;;
5845;SDS011;2949;50.778;7.094;2022-07-29T03:19:02;6.70;;;2.20;;
5845;SDS011;2949;50.778;7.094;2022-07-29T03:21:29;7.90;;;2.40;;
5845;SDS011;2949;50.778;7.094;2022-07-29T03:23:55;4.57;;;1.83;;
5845;SDS011;2949;50.778;7.094;2022-07-29T03:26:20;7.27;;;3.87;;
5845;SDS011;2949;50.778;7.094;2022-07-29T03:28:46;5.30;;;2.17;;
5845;SDS011;2949;50.778;7.094;2022-07-29T03:31:11;3.67;;;2.17;;
5845;SDS011;2949;50.778;7.094;2022-07-29T03:33:37;4.03;;;2.13;;
5845;SDS011;2949;50.778;7.094;2022-07-29T03:36:02;4.13;;;1.83;;
5845;SDS011;2949;50.778;7.094;2022-07-29T03:38:29;4.23;;;1.67;;
5845;SDS011;2949;50.778;7.094;2022-07-29T03:40:58;6.33;;;2.03;;
5845;SDS011;2949;50.778;7.094;2022-07-29T03:43:29;3.37;;;2.00;;
5845;SDS011;2949;50.778;7.094;2022-07-29T03:45:58;4.10;;;2.20;;
5845;SDS011;2949;50.778;7.094;2022-07-29T03:48:25;3.80;;;1.83;;
5845;SDS011;2949;50.778;7.094;2022-07-29T03:50:54;4.20;;;2.20;;
5845;SDS011;2949;50.778;7.094;2022-07-29T03:53:20;8.90;;;1.90;;
5845;SDS011;2949;50.778;7.094;2022-07-29T03:55:48;5.87;;;2.07;;
5845;SDS011;2949;50.778;7.094;2022-07-29T03:58:18;2.97;;;2.03;;
5845;SDS011;2949;50.778;7.094;2022-07-29T04:00:44;9.77;;;3.00;;
5845;SDS011;2949;50.778;7.094;2022-07-29T04:03:11;3.10;;;2.10;;
5845;SDS011;2949;50.778;7.094;2022-07-29T04:05:38;6.00;;;2.27;;
5845;SDS011;2949;50.778;7.094;2022-07-29T04:08:03;2.03;;;1.87;;
5845;SDS011;2949;50.778;7.094;2022-07-29T04:10:29;4.47;;;2.20;;
5845;SDS011;2949;50.778;7.094;2022-07-29T04:12:55;2.27;;;2.07;;
5845;SDS011;2949;50.778;7.094;2022-07-29T04:15:20;8.23;;;2.00;;
5845;SDS011;2949;50.778;7.094;2022-07-29T04:17:46;5.30;;;2.73;;
5845;SDS011;2949;50.778;7.094;2022-07-29T04:20:11;6.60;;;2.17;;
5845;SDS011;2949;50.778;7.094;2022-07-29T04:22:38;14.47;;;2.40;;
5845;SDS011;2949;50.778;7.094;2022-07-29T04:25:04;4.50;;;1.87;;
5845;SDS011;2949;50.778;7.094;2022-07-29T04:27:30;3.87;;;2.07;;
5845;SDS011;2949;50.778;7.094;2022-07-29T04:29:55;3.37;;;1.80;;
5845;SDS011;2949;50.778;7.094;2022-07-29T04:32:21;2.90;;;1.90;;
5845;SDS011;2949;50.778;7.094;2022-07-29T04:34:47;5.10;;;2.43;;
5845;SDS011;2949;50.778;7.094;2022-07-29T04:37:12;2.67;;;1.80;;
5845;SDS011;2949;50.778;7.094;2022-07-29T04:39:38;6.93;;;2.33;;
5845;SDS011;2949;50.778;7.094;2022-07-29T04:42:04;3.90;;;2.27;;
5845;SDS011;2949;50.778;7.094;2022-07-29T04:44:29;4.23;;;1.93;;
5845;SDS011;2949;50.778;7.094;2022-07-29T04:46:55;4.13;;;2.50;;
5845;SDS011;2949;50.778;7.094;2022-07-29T04:49:21;3.37;;;1.80;;
5845;SDS011;2949;50.778;7.094;2022-07-29T04:51:48;2.70;;;1.60;;
5845;SDS011;2949;50.778;7.094;2022-07-29T04:54:13;4.73;;;2.27;;
5845;SDS011;2949;50.778;7.094;2022-07-29T04:56:39;3.90;;;1.63;;
5845;SDS011;2949;50.778;7.094;2022-07-29T04:59:04;3.03;;;2.10;;
5845;SDS011;2949;50.778;7.094;2022-07-29T05:01:30;4.77;;;2.37;;
5845;SDS011;2949;50.778;7.094;2022-07-29T05:03:55;4.10;;;2.17;;
5845;SDS011;2949;50.778;7.094;2022-07-29T05:06:21;4.33;;;2.20;;
5845;SDS011;2949;50.778;7.094;2022-07-29T05:08:46;8.77;;;2.03;;
5845;SDS011;2949;50.778;7.094;2022-07-29T05:11:12;14.07;;;3.70;;
5845;SDS011;2949;50.778;7.094;2022-07-29T05:13:38;20.23;;;2.20;;
5845;SDS011;2949;50.778;7.094;2022-07-29T05:16:04;7.40;;;1.27;;
5845;SDS011;2949;50.778;7.094;2022-07-29T05:18:29;5.60;;;1.70;;
5845;SDS011;2949;50.778;7.094;2022-07-29T05:20:55;3.67;;;1.93;;
5845;SDS011;2949;50.778;7.094;2022-07-29T05:23:21;4.43;;;1.90;;
5845;SDS011;2949;50.778;7.094;2022-07-29T05:25:46;3.73;;;1.73;;
5845;SDS011;2949;50.778;7.094;2022-07-29T05:28:12;4.40;;;1.47;;
5845;SDS011;2949;50.778;7.094;2022-07-29T05:30:38;4.60;;;1.90;;
5845;SDS011;2949;50.778;7.094;2022-07-29T05:33:03;9.40;;;2.20;;
5845;SDS011;2949;50.778;7.094;2022-07-29T05:35:29;6.90;;;2.17;;
5845;SDS011;2949;50.778;7.094;2022-07-29T05:37:54;4.83;;;1.87;;
5845;SDS011;2949;50.778;7.094;2022-07-29T05:40:20;7.20;;;2.27;;
5845;SDS011;2949;50.778;7.094;2022-07-29T05:42:46;4.00;;;1.50;;
5845;SDS011;2949;50.778;7.094;2022-07-29T05:45:12;4.80;;;2.30;;
5845;SDS011;2949;50.778;7.094;2022-07-29T05:47:37;3.67;;;1.83;;
5845;SDS011;2949;50.778;7.094;2022-07-29T05:50:03;6.17;;;1.83;;
5845;SDS011;2949;50.778;7.094;2022-07-29T05:52:29;5.10;;;2.07;;
5845;SDS011;2949;50.778;7.094;2022-07-29T05:54:55;11.63;;;2.13;;
5845;SDS011;2949;50.778;7.094;2022-07-29T05:57:22;3.60;;;1.40;;
5845;SDS011;2949;50.778;7.094;2022-07-29T05:59:48;7.27;;;1.80;;
5845;SDS011;2949;50.778;7.094;2022-07-29T06:02:15;4.00;;;2.00;;
5845;SDS011;2949;50.778;7.094;2022-07-29T06:04:41;4.70;;;1.70;;
5845;SDS011;2949;50.778;7.094;2022-07-29T06:07:07;13.13;;;1.57;;
5845;SDS011;2949;50.778;7.094;2022-07-29T06:09:33;6.73;;;1.93;;
5845;SDS011;2949;50.778;7.094;2022-07-29T06:11:59;7.47;;;1.43;;
5845;SDS011;2949;50.778;7.094;2022-07-29T06:14:24;6.53;;;1.80;;
5845;SDS011;2949;50.778;7.094;2022-07-29T06:16:51;5.17;;;1.67;;
5845;SDS011;2949;50.778;7.094;2022-07-29T06:19:17;5.80;;;2.17;;
5845;SDS011;2949;50.778;7.094;2022-07-29T06:21:43;4.77;;;1.63;;
5845;SDS011;2949;50.778;7.094;2022-07-29T06:24:12;4.90;;;2.13;;
5845;SDS011;2949;50.778;7.094;2022-07-29T06:26:38;4.87;;;1.60;;
5845;SDS011;2949;50.778;7.094;2022-07-29T06:29:05;3.83;;;1.80;;
5845;SDS011;2949;50.778;7.094;2022-07-29T06:31:31;8.37;;;2.10;;
5845;SDS011;2949;50.778;7.094;2022-07-29T06:33:57;3.83;;;1.60;;
5845;SDS011;2949;50.778;7.094;2022-07-29T06:36:22;8.03;;;2.13;;
5845;SDS011;2949;50.778;7.094;2022-07-29T06:38:48;3.40;;;1.60;;
5845;SDS011;2949;50.778;7.094;2022-07-29T06:41:13;5.37;;;2.27;;
5845;SDS011;2949;50.778;7.094;2022-07-29T06:43:41;5.27;;;1.73;;
5845;SDS011;2949;50.778;7.094;2022-07-29T06:46:09;5.73;;;1.93;;
5845;SDS011;2949;50.778;7.094;2022-07-29T06:48:36;7.33;;;1.40;;
5845;SDS011;2949;50.778;7.094;2022-07-29T06:51:02;7.00;;;1.90;;
5845;SDS011;2949;50.778;7.094;2022-07-29T06:53:29;9.03;;;1.47;;
5845;SDS011;2949;50.778;7.094;2022-07-29T06:55:55;5.87;;;1.90;;
5845;SDS011;2949;50.778;7.094;2022-07-29T06:58:20;5.40;;;1.63;;
5845;SDS011;2949;50.778;7.094;2022-07-29T07:00:46;2.97;;;1.40;;
5845;SDS011;2949;50.778;7.094;2022-07-29T07:03:13;8.80;;;1.90;;
5845;SDS011;2949;50.778;7.094;2022-07-29T07:05:39;6.03;;;2.17;;
5845;SDS011;2949;50.778;7.094;2022-07-29T07:08:05;3.97;;;1.67;;
5845;SDS011;2949;50.778;7.094;2022-07-29T07:10:31;10.03;;;2.03;;
5845;SDS011;2949;50.778;7.094;2022-07-29T07:12:57;5.77;;;1.53;;
5845;SDS011;2949;50.778;7.094;2022-07-29T07:15:23;12.70;;;2.10;;
5845;SDS011;2949;50.778;7.094;2022-07-29T07:17:48;10.47;;;2.00;;
5845;SDS011;2949;50.778;7.094;2022-07-29T07:20:15;14.17;;;1.80;;
5845;SDS011;2949;50.778;7.094;2022-07-29T07:22:40;6.37;;;1.97;;
5845;SDS011;2949;50.778;7.094;2022-07-29T07:25:06;13.03;;;1.73;;
5845;SDS011;2949;50.778;7.094;2022-07-29T07:27:32;9.73;;;1.70;;
5845;SDS011;2949;50.778;7.094;2022-07-29T07:29:57;6.97;;;2.10;;
5845;SDS011;2949;50.778;7.094;2022-07-29T07:32:23;14.07;;;2.23;;
5845;SDS011;2949;50.778;7.094;2022-07-29T07:34:48;11.70;;;2.17;;
5845;SDS011;2949;50.778;7.094;2022-07-29T07:37:14;4.63;;;1.60;;
5845;SDS011;2949;50.778;7.094;2022-07-29T07:39:40;4.73;;;1.47;;
5845;SDS011;2949;50.778;7.094;2022-07-29T07:42:06;8.10;;;1.80;;
5845;SDS011;2949;50.778;7.094;2022-07-29T07:44:32;12.00;;;1.80;;
5845;SDS011;2949;50.778;7.094;2022-07-29T07:46:57;4.30;;;1.67;;
5845;SDS011;2949;50.778;7.094;2022-07-29T07:49:23;4.67;;;1.43;;
5845;SDS011;2949;50.778;7.094;2022-07-29T07:51:48;5.93;;;1.73;;
5845;SDS011;2949;50.778;7.094;2022-07-29T07:54:14;9.53;;;1.90;;
5845;SDS011;2949;50.778;7.094;2022-07-29T07:56:40;5.30;;;1.77;;
5845;SDS011;2949;50.778;7.094;2022-07-29T07:59:05;4.50;;;1.30;;
5845;SDS011;2949;50.778;7.094;2022-07-29T08:01:31;6.43;;;1.50;;
5845;SDS011;2949;50.778;7.094;2022-07-29T08:03:56;1.97;;;1.50;;
5845;SDS011;2949;50.778;7.094;2022-07-29T08:06:22;7.13;;;1.80;;
5845;SDS011;2949;50.778;7.094;2022-07-29T08:08:49;19.13;;;2.63;;
5845;SDS011;2949;50.778;7.094;2022-07-29T08:11:15;10.17;;;2.80;;
5845;SDS011;2949;50.778;7.094;2022-07-29T08:13:41;13.10;;;2.07;;
5845;SDS011;2949;50.778;7.094;2022-07-29T08:16:08;6.70;;;2.20;;
5845;SDS011;2949;50.778;7.094;2022-07-29T08:18:38;11.13;;;2.60;;
5845;SDS011;2949;50.778;7.094;2022-07-29T08:21:04;7.37;;;1.87;;
5845;SDS011;2949;50.778;7.094;2022-07-29T08:23:30;9.03;;;2.03;;
5845;SDS011;2949;50.778;7.094;2022-07-29T08:26:10;12.40;;;1.53;;
5845;SDS011;2949;50.778;7.094;2022-07-29T08:28:43;7.10;;;2.20;;
5845;SDS011;2949;50.778;7.094;2022-07-29T08:31:11;7.30;;;3.03;;
5845;SDS011;2949;50.778;7.094;2022-07-29T08:33:37;10.00;;;2.80;;
5845;SDS011;2949;50.778;7.094;2022-07-29T08:36:03;8.17;;;2.30;;
5845;SDS011;2949;50.778;7.094;2022-07-29T08:38:29;10.80;;;2.40;;
5845;SDS011;2949;50.778;7.094;2022-07-29T08:40:55;10.83;;;2.83;;
5845;SDS011;2949;50.778;7.094;2022-07-29T08:43:20;18.40;;;3.10;;
5845;SDS011;2949;50.778;7.094;2022-07-29T08:45:47;9.60;;;2.60;;
5845;SDS011;2949;50.778;7.094;2022-07-29T08:48:15;8.63;;;2.33;;
5845;SDS011;2949;50.778;7.094;2022-07-29T08:50:43;11.70;;;2.20;;
5845;SDS011;2949;50.778;7.094;2022-07-29T08:53:13;12.63;;;2.70;;
5845;SDS011;2949;50.778;7.094;2022-07-29T08:55:42;7.40;;;2.23;;
5845;SDS011;2949;50.778;7.094;2022-07-29T08:58:08;11.70;;;3.00;;
5845;SDS011;2949;50.778;7.094;2022-07-29T09:00:36;12.27;;;3.03;;
5845;SDS011;2949;50.778;7.094;2022-07-29T09:03:05;11.33;;;2.53;;
5845;SDS011;2949;50.778;7.094;2022-07-29T09:05:33;12.07;;;2.50;;
5845;SDS011;2949;50.778;7.094;2022-07-29T09:07:59;3.17;;;2.20;;
5845;SDS011;2949;50.778;7.094;2022-07-29T09:10:26;7.30;;;2.50;;
5845;SDS011;2949;50.778;7.094;2022-07-29T09:12:51;13.80;;;2.57;;
5845;SDS011;2949;50.778;7.094;2022-07-29T09:15:18;7.30;;;2.22;;
5845;SDS011;2949;50.778;7.094;2022-07-29T09:17:47;10.23;;;2.83;;
5845;SDS011;2949;50.778;7.094;2022-07-29T09:20:15;8.00;;;2.33;;
5845;SDS011;2949;50.778;7.094;2022-07-29T09:22:42;11.40;;;2.75;;
5845;SDS011;2949;50.778;7.094;2022-07-29T09:25:10;9.90;;;2.67;;
5845;SDS011;2949;50.778;7.094;2022-07-29T09:27:37;9.90;;;3.50;;
5845;SDS011;2949;50.778;7.094;2022-07-29T09:30:04;16.75;;;2.38;;
5845;SDS011;2949;50.778;7.094;2022-07-29T09:32:32;11.68;;;2.55;;
5845;SDS011;2949;50.778;7.094;2022-07-29T09:35:14;7.05;;;2.72;;
5845;SDS011;2949;50.778;7.094;2022-07-29T09:37:42;9.93;;;2.70;;
5845;SDS011;2949;50.778;7.094;2022-07-29T09:40:12;13.00;;;2.38;;
5845;SDS011;2949;50.778;7.094;2022-07-29T09:42:43;23.23;;;2.47;;
5845;SDS011;2949;50.778;7.094;2022-07-29T09:45:09;8.40;;;2.47;;
5845;SDS011;2949;50.778;7.094;2022-07-29T09:47:40;10.87;;;2.80;;
5845;SDS011;2949;50.778;7.094;2022-07-29T09:50:07;6.10;;;1.90;;
5845;SDS011;2949;50.778;7.094;2022-07-29T09:52:32;6.40;;;2.10;;
5845;SDS011;2949;50.778;7.094;2022-07-29T09:55:13;7.60;;;2.57;;
5845;SDS011;2949;50.778;7.094;2022-07-29T09:57:39;7.80;;;2.38;;
5845;SDS011;2949;50.778;7.094;2022-07-29T10:00:05;5.10;;;2.47;;
5845;SDS011;2949;50.778;7.094;2022-07-29T10:02:33;4.85;;;2.25;;
5845;SDS011;2949;50.778;7.094;2022-07-29T10:05:01;10.93;;;2.22;;
5845;SDS011;2949;50.778;7.094;2022-07-29T10:10:24;6.25;;;2.13;;
5845;SDS011;2949;50.778;7.094;2022-07-29T10:12:57;13.23;;;3.17;;
5845;SDS011;2949;50.778;7.094;2022-07-29T10:15:26;12.00;;;2.35;;
5845;SDS011;2949;50.778;7.094;2022-07-29T10:17:54;7.82;;;2.58;;
5845;SDS011;2949;50.778;7.094;2022-07-29T10:20:21;4.00;;;2.00;;
5845;SDS011;2949;50.778;7.094;2022-07-29T10:22:48;5.60;;;2.40;;
5845;SDS011;2949;50.778;7.094;2022-07-29T10:25:14;8.30;;;2.30;;
5845;SDS011;2949;50.778;7.094;2022-07-29T10:27:41;6.70;;;2.60;;
5845;SDS011;2949;50.778;7.094;2022-07-29T10:30:08;6.67;;;2.53;;
5845;SDS011;2949;50.778;7.094;2022-07-29T10:35:12;10.07;;;2.77;;
5845;SDS011;2949;50.778;7.094;2022-07-29T10:40:51;9.03;;;2.30;;
5845;SDS011;2949;50.778;7.094;2022-07-29T10:43:44;7.67;;;2.23;;
5845;SDS011;2949;50.778;7.094;2022-07-29T10:46:12;12.80;;;3.00;;
5845;SDS011;2949;50.778;7.094;2022-07-29T10:54:15;11.47;;;2.20;;
5845;SDS011;2949;50.778;7.094;2022-07-29T11:05:11;6.77;;;2.90;;
5845;SDS011;2949;50.778;7.094;2022-07-29T11:10:37;8.00;;;2.83;;
5845;SDS011;2949;50.778;7.094;2022-07-29T11:13:03;10.47;;;2.80;;
5845;SDS011;2949;50.778;7.094;2022-07-29T11:15:29;6.60;;;2.33;;
5845;SDS011;2949;50.778;7.094;2022-07-29T11:18:20;6.20;;;2.50;;
5845;SDS011;2949;50.778;7.094;2022-07-29T11:20:47;4.93;;;2.60;;
5845;SDS011;2949;50.778;7.094;2022-07-29T11:28:35;4.57;;;2.17;;
5845;SDS011;2949;50.778;7.094;2022-07-29T11:31:04;6.80;;;1.87;;
5845;SDS011;2949;50.778;7.094;2022-07-29T11:33:32;3.90;;;1.80;;
5845;SDS011;2949;50.778;7.094;2022-07-29T11:36:11;9.63;;;2.90;;
5845;SDS011;2949;50.778;7.094;2022-07-29T11:38:39;4.23;;;2.53;;
5845;SDS011;2949;50.778;7.094;2022-07-29T11:43:49;4.93;;;2.10;;
5845;SDS011;2949;50.778;7.094;2022-07-29T11:49:23;5.70;;;1.90;;
5845;SDS011;2949;50.778;7.094;2022-07-29T11:51:53;7.27;;;1.93;;
5845;SDS011;2949;50.778;7.094;2022-07-29T11:54:24;7.60;;;2.10;;
5845;SDS011;2949;50.778;7.094;2022-07-29T11:56:52;4.53;;;2.00;;
5845;SDS011;2949;50.778;7.094;2022-07-29T11:59:17;6.87;;;1.83;;
5845;SDS011;2949;50.778;7.094;2022-07-29T12:01:57;3.60;;;1.40;;
5845;SDS011;2949;50.778;7.094;2022-07-29T12:04:23;2.70;;;1.60;;
5845;SDS011;2949;50.778;7.094;2022-07-29T12:06:51;16.30;;;2.27;;
5845;SDS011;2949;50.778;7.094;2022-07-29T12:09:18;3.13;;;1.93;;
5845;SDS011;2949;50.778;7.094;2022-07-29T12:11:44;6.03;;;1.90;;
5845;SDS011;2949;50.778;7.094;2022-07-29T12:14:27;4.50;;;1.50;;
5845;SDS011;2949;50.778;7.094;2022-07-29T12:16:53;3.17;;;1.53;;
5845;SDS011;2949;50.778;7.094;2022-07-29T12:19:18;1.97;;;1.77;;
5845;SDS011;2949;50.778;7.094;2022-07-29T12:21:48;4.60;;;2.00;;
5845;SDS011;2949;50.778;7.094;2022-07-29T12:24:18;6.20;;;1.80;;
5845;SDS011;2949;50.778;7.094;2022-07-29T12:29:22;3.30;;;1.73;;
5845;SDS011;2949;50.778;7.094;2022-07-29T12:31:52;11.03;;;1.60;;
5845;SDS011;2949;50.778;7.094;2022-07-29T12:34:19;5.20;;;1.60;;
5845;SDS011;2949;50.778;7.094;2022-07-29T12:36:48;3.67;;;1.80;;
5845;SDS011;2949;50.778;7.094;2022-07-29T12:39:15;3.80;;;1.90;;
5845;SDS011;2949;50.778;7.094;2022-07-29T12:41:42;5.80;;;1.93;;
5845;SDS011;2949;50.778;7.094;2022-07-29T12:44:08;11.20;;;1.80;;
5845;SDS011;2949;50.778;7.094;2022-07-29T12:46:34;15.03;;;2.20;;
5845;SDS011;2949;50.778;7.094;2022-07-29T12:49:00;3.20;;;1.63;;
5845;SDS011;2949;50.778;7.094;2022-07-29T12:51:29;4.33;;;1.80;;
5845;SDS011;2949;50.778;7.094;2022-07-29T12:54:06;8.57;;;2.20;;
5845;SDS011;2949;50.778;7.094;2022-07-29T12:56:32;5.03;;;1.87;;
5845;SDS011;2949;50.778;7.094;2022-07-29T12:58:58;3.73;;;1.67;;
5845;SDS011;2949;50.778;7.094;2022-07-29T13:01:24;7.13;;;1.80;;
5845;SDS011;2949;50.778;7.094;2022-07-29T13:03:57;3.83;;;2.10;;
5845;SDS011;2949;50.778;7.094;2022-07-29T13:06:41;7.87;;;1.70;;
5845;SDS011;2949;50.778;7.094;2022-07-29T13:09:17;10.17;;;1.90;;
5845;SDS011;2949;50.778;7.094;2022-07-29T13:11:45;9.50;;;1.80;;
5845;SDS011;2949;50.778;7.094;2022-07-29T13:14:13;6.27;;;1.97;;
5845;SDS011;2949;50.778;7.094;2022-07-29T13:17:04;6.90;;;1.70;;
5845;SDS011;2949;50.778;7.094;2022-07-29T13:22:07;10.10;;;1.70;;
5845;SDS011;2949;50.778;7.094;2022-07-29T13:24:44;6.73;;;1.50;;
5845;SDS011;2949;50.778;7.094;2022-07-29T13:27:14;9.03;;;1.93;;
5845;SDS011;2949;50.778;7.094;2022-07-29T13:29:41;2.03;;;1.70;;
5845;SDS011;2949;50.778;7.094;2022-07-29T13:32:06;4.47;;;1.50;;
5845;SDS011;2949;50.778;7.094;2022-07-29T13:34:32;3.83;;;1.97;;
5845;SDS011;2949;50.778;7.094;2022-07-29T13:36:58;5.73;;;1.73;;
5845;SDS011;2949;50.778;7.094;2022-07-29T13:39:23;9.00;;;2.20;;
5845;SDS011;2949;50.778;7.094;2022-07-29T13:41:49;4.37;;;1.90;;
5845;SDS011;2949;50.778;7.094;2022-07-29T13:44:14;7.30;;;2.17;;
5845;SDS011;2949;50.778;7.094;2022-07-29T13:46:40;4.73;;;1.87;;
5845;SDS011;2949;50.778;7.094;2022-07-29T13:49:05;2.87;;;1.63;;
5845;SDS011;2949;50.778;7.094;2022-07-29T13:51:31;3.60;;;2.20;;
5845;SDS011;2949;50.778;7.094;2022-07-29T13:53:56;9.87;;;1.80;;
5845;SDS011;2949;50.778;7.094;2022-07-29T13:56:22;6.80;;;1.70;;
5845;SDS011;2949;50.778;7.094;2022-07-29T13:58:47;2.40;;;1.40;;
5845;SDS011;2949;50.778;7.094;2022-07-29T14:01:13;4.70;;;2.10;;
5845;SDS011;2949;50.778;7.094;2022-07-29T14:03:38;3.53;;;1.73;;
5845;SDS011;2949;50.778;7.094;2022-07-29T14:06:06;2.93;;;1.53;;
5845;SDS011;2949;50.778;7.094;2022-07-29T14:08:31;5.57;;;1.60;;
5845;SDS011;2949;50.778;7.094;2022-07-29T14:10:57;6.03;;;1.80;;
5845;SDS011;2949;50.778;7.094;2022-07-29T14:13:23;4.27;;;1.90;;
5845;SDS011;2949;50.778;7.094;2022-07-29T14:15:48;3.67;;;1.70;;
5845;SDS011;2949;50.778;7.094;2022-07-29T14:18:14;3.37;;;1.90;;
5845;SDS011;2949;50.778;7.094;2022-07-29T14:20:39;3.13;;;1.37;;
5845;SDS011;2949;50.778;7.094;2022-07-29T14:23:05;5.80;;;1.60;;
5845;SDS011;2949;50.778;7.094;2022-07-29T14:25:30;5.80;;;1.70;;
5845;SDS011;2949;50.778;7.094;2022-07-29T14:27:56;5.53;;;2.20;;
5845;SDS011;2949;50.778;7.094;2022-07-29T14:30:21;2.97;;;1.87;;
5845;SDS011;2949;50.778;7.094;2022-07-29T14:32:47;4.53;;;1.80;;
5845;SDS011;2949;50.778;7.094;2022-07-29T14:35:12;7.50;;;2.00;;
5845;SDS011;2949;50.778;7.094;2022-07-29T14:37:38;5.10;;;1.83;;
5845;SDS011;2949;50.778;7.094;2022-07-29T14:40:04;6.60;;;2.20;;
5845;SDS011;2949;50.778;7.094;2022-07-29T14:42:30;7.53;;;2.70;;
5845;SDS011;2949;50.778;7.094;2022-07-29T14:44:56;4.60;;;1.93;;
5845;SDS011;2949;50.778;7.094;2022-07-29T14:47:22;5.23;;;1.87;;
5845;SDS011;2949;50.778;7.094;2022-07-29T14:49:48;5.50;;;2.03;;
5845;SDS011;2949;50.778;7.094;2022-07-29T14:52:14;6.67;;;2.00;;
5845;SDS011;2949;50.778;7.094;2022-07-29T14:54:40;3.93;;;2.17;;
5845;SDS011;2949;50.778;7.094;2022-07-29T14:57:05;6.23;;;1.90;;
5845;SDS011;2949;50.778;7.094;2022-07-29T14:59:31;5.43;;;2.40;;
5845;SDS011;2949;50.778;7.094;2022-07-29T15:01:56;5.70;;;2.23;;
5845;SDS011;2949;50.778;7.094;2022-07-29T15:04:22;3.33;;;2.07;;
5845;SDS011;2949;50.778;7.094;2022-07-29T15:06:48;2.37;;;1.80;;
5845;SDS011;2949;50.778;7.094;2022-07-29T15:09:13;6.93;;;2.30;;
5845;SDS011;2949;50.778;7.094;2022-07-29T15:11:39;6.50;;;2.60;;
5845;SDS011;2949;50.778;7.094;2022-07-29T15:14:05;8.07;;;2.80;;
5845;SDS011;2949;50.778;7.094;2022-07-29T15:16:31;6.70;;;2.30;;
5845;SDS011;2949;50.778;7.094;2022-07-29T15:18:56;4.57;;;2.20;;
5845;SDS011;2949;50.778;7.094;2022-07-29T15:21:23;4.37;;;2.40;;
5845;SDS011;2949;50.778;7.094;2022-07-29T15:23:48;5.80;;;2.47;;
5845;SDS011;2949;50.778;7.094;2022-07-29T15:26:14;15.00;;;3.10;;
5845;SDS011;2949;50.778;7.094;2022-07-29T15:28:40;4.80;;;2.60;;
5845;SDS011;2949;50.778;7.094;2022-07-29T15:31:05;8.80;;;3.27;;
5845;SDS011;2949;50.778;7.094;2022-07-29T15:33:31;4.73;;;2.53;;
5845;SDS011;2949;50.778;7.094;2022-07-29T15:35:56;11.53;;;3.70;;
5845;SDS011;2949;50.778;7.094;2022-07-29T15:38:22;8.20;;;2.87;;
5845;SDS011;2949;50.778;7.094;2022-07-29T15:40:47;11.40;;;2.63;;
5845;SDS011;2949;50.778;7.094;2022-07-29T15:43:13;12.80;;;3.10;;
5845;SDS011;2949;50.778;7.094;2022-07-29T15:45:39;4.77;;;2.20;;
5845;SDS011;2949;50.778;7.094;2022-07-29T15:48:06;8.67;;;4.40;;
5845;SDS011;2949;50.778;7.094;2022-07-29T15:50:33;10.40;;;6.40;;
5845;SDS011;2949;50.778;7.094;2022-07-29T15:52:59;7.17;;;4.30;;
5845;SDS011;2949;50.778;7.094;2022-07-29T15:55:25;6.03;;;4.37;;
5845;SDS011;2949;50.778;7.094;2022-07-29T15:57:50;9.90;;;3.50;;
5845;SDS011;2949;50.778;7.094;2022-07-29T16:00:16;11.97;;;3.43;;
5845;SDS011;2949;50.778;7.094;2022-07-29T16:02:42;6.03;;;2.03;;
5845;SDS011;2949;50.778;7.094;2022-07-29T16:05:08;6.77;;;2.73;;
5845;SDS011;2949;50.778;7.094;2022-07-29T16:07:34;2.63;;;1.60;;
5845;SDS011;2949;50.778;7.094;2022-07-29T16:09:59;4.20;;;1.83;;